createdAt,value
2018-12-05T00:00:47.068Z,10.28
2018-12-05T00:03:16.191Z,9.20
2018-12-05T00:05:46.472Z,9.63
2018-12-05T00:08:15.652Z,12.68
2018-12-05T00:10:44.776Z,7.35
2018-12-05T00:13:15.342Z,9.93
2018-12-05T00:15:44.460Z,7.85
2018-12-05T00:18:13.539Z,8.50
2018-12-05T00:20:42.672Z,9.35
2018-12-05T00:23:11.823Z,7.92
2018-12-05T00:25:40.987Z,8.78
2018-12-05T00:28:10.069Z,8.28
2018-12-05T00:30:39.213Z,6.40
2018-12-05T00:33:08.456Z,9.95
2018-12-05T00:35:37.652Z,10.05
2018-12-05T00:38:06.801Z,8.85
2018-12-05T00:40:35.909Z,8.30
2018-12-05T00:43:05.225Z,9.00
2018-12-05T00:45:34.342Z,7.85
2018-12-05T00:48:03.483Z,7.80
2018-12-05T00:50:32.585Z,9.18
2018-12-05T00:53:01.747Z,7.75
2018-12-05T00:55:30.855Z,8.25
2018-12-05T00:57:59.987Z,8.15
2018-12-05T01:00:29.131Z,7.83
2018-12-05T01:02:58.335Z,5.45
2018-12-05T01:05:27.676Z,6.50
2018-12-05T01:07:56.997Z,7.20
2018-12-05T01:10:26.135Z,6.70
2018-12-05T01:12:55.242Z,7.10
2018-12-05T01:15:24.467Z,5.83
2018-12-05T01:17:53.623Z,7.87
2018-12-05T01:20:22.965Z,6.22
2018-12-05T01:22:52.121Z,9.98
2018-12-05T01:25:21.247Z,7.15
2018-12-05T01:27:50.483Z,9.15
2018-12-05T01:30:19.569Z,6.83
2018-12-05T01:32:48.699Z,4.03
2018-12-05T01:35:17.796Z,8.20
2018-12-05T01:37:47.355Z,7.42
2018-12-05T01:40:16.518Z,4.28
2018-12-05T01:42:45.628Z,6.20
2018-12-05T01:45:14.747Z,9.05
2018-12-05T01:47:43.876Z,5.45
2018-12-05T01:50:13.120Z,6.55
2018-12-05T01:52:42.333Z,5.12
2018-12-05T01:55:11.534Z,7.08
2018-12-05T01:57:40.646Z,7.17
2018-12-05T02:00:10.244Z,6.30
2018-12-05T02:02:39.334Z,6.28
2018-12-05T02:05:08.606Z,4.20
2018-12-05T02:07:37.704Z,6.72
2018-12-05T02:10:07.130Z,4.15
2018-12-05T02:12:36.236Z,8.53
2018-12-05T02:15:05.840Z,6.95
2018-12-05T02:17:35.044Z,5.50
2018-12-05T02:20:04.972Z,6.55
2018-12-05T02:22:34.092Z,7.35
2018-12-05T02:25:03.307Z,7.67
2018-12-05T02:27:32.484Z,8.28
2018-12-05T02:30:01.625Z,6.33
2018-12-05T02:32:30.757Z,9.18
2018-12-05T02:34:59.887Z,5.85
2018-12-05T02:37:28.976Z,5.12
2018-12-05T02:39:58.114Z,6.70
2018-12-05T02:42:27.261Z,5.30
2018-12-05T02:44:57.439Z,6.03
2018-12-05T02:47:26.759Z,6.37
2018-12-05T02:49:55.882Z,6.42
2018-12-05T02:52:24.984Z,7.08
2018-12-05T02:54:54.127Z,6.10
2018-12-05T02:57:23.260Z,5.17
2018-12-05T02:59:52.404Z,7.15
2018-12-05T03:02:21.536Z,6.50
2018-12-05T03:04:50.773Z,6.17
2018-12-05T03:07:19.879Z,6.33
2018-12-05T03:09:48.994Z,8.28
2018-12-05T03:12:18.269Z,5.85
2018-12-05T03:14:47.401Z,6.75
2018-12-05T03:17:16.583Z,5.12
2018-12-05T03:19:45.775Z,9.78
2018-12-05T03:22:14.848Z,7.15
2018-12-05T03:24:43.935Z,5.20
2018-12-05T03:27:13.085Z,8.60
2018-12-05T03:29:42.167Z,6.55
2018-12-05T03:32:13.352Z,6.47
2018-12-05T03:34:42.562Z,7.55
2018-12-05T03:37:11.623Z,7.70
2018-12-05T03:39:40.745Z,5.33
2018-12-05T03:42:10.173Z,5.67
2018-12-05T03:44:39.606Z,6.10
2018-12-05T03:47:08.756Z,5.20
2018-12-05T03:49:39.897Z,6.05
2018-12-05T03:52:09.039Z,5.55
2018-12-05T03:54:38.123Z,6.33
2018-12-05T03:57:07.227Z,6.67
2018-12-05T03:59:36.319Z,7.08
2018-12-05T04:02:05.455Z,5.87
2018-12-05T04:04:34.741Z,7.33
2018-12-05T04:07:03.824Z,5.83
2018-12-05T04:09:32.963Z,5.03
2018-12-05T04:12:02.126Z,5.90
2018-12-05T04:14:31.395Z,6.40
2018-12-05T04:17:00.559Z,4.90
2018-12-05T04:19:29.888Z,3.92
2018-12-05T04:21:59.020Z,4.25
2018-12-05T04:24:28.100Z,6.17
2018-12-05T04:26:57.189Z,3.35
2018-12-05T04:29:26.400Z,5.05
2018-12-05T04:31:55.528Z,4.37
2018-12-05T04:34:24.876Z,5.60
2018-12-05T04:36:54.016Z,4.67
2018-12-05T04:39:23.097Z,4.92
2018-12-05T04:41:52.728Z,3.47
2018-12-05T04:44:21.943Z,3.52
2018-12-05T04:46:51.318Z,4.80
2018-12-05T04:49:20.435Z,4.40
2018-12-05T04:51:49.565Z,3.80
2018-12-05T04:54:18.804Z,3.72
2018-12-05T04:56:47.945Z,5.20
2018-12-05T04:59:17.018Z,4.28
2018-12-05T05:01:46.197Z,4.85
2018-12-05T05:04:15.309Z,4.85
2018-12-05T05:06:44.555Z,3.55
2018-12-05T05:09:13.681Z,4.55
2018-12-05T05:11:42.800Z,3.87
2018-12-05T05:14:11.928Z,3.42
2018-12-05T05:16:41.194Z,4.37
2018-12-05T05:19:10.530Z,3.65
2018-12-05T05:21:39.716Z,5.05
2018-12-05T05:24:08.873Z,3.65
2018-12-05T05:26:38.088Z,5.12
2018-12-05T05:29:07.229Z,3.98
2018-12-05T05:31:36.380Z,3.50
2018-12-05T05:34:05.526Z,4.55
2018-12-05T05:36:34.654Z,4.40
2018-12-05T05:39:05.426Z,4.17
2018-12-05T05:41:34.610Z,4.03
2018-12-05T05:44:03.750Z,3.87
2018-12-05T05:46:32.884Z,4.28
2018-12-05T05:49:02.128Z,3.92
2018-12-05T05:51:31.265Z,4.62
2018-12-05T05:54:00.376Z,4.95
2018-12-05T05:56:29.450Z,4.90
2018-12-05T05:58:58.586Z,4.10
2018-12-05T06:01:27.698Z,5.50
2018-12-05T06:04:01.401Z,5.37
2018-12-05T06:06:30.585Z,4.15
2018-12-05T06:08:59.721Z,3.72
2018-12-05T06:11:28.957Z,6.53
2018-12-05T06:13:58.073Z,5.47
2018-12-05T06:16:27.405Z,3.72
2018-12-05T06:18:56.711Z,4.42
2018-12-05T06:21:26.132Z,4.50
2018-12-05T06:23:55.341Z,3.95
2018-12-05T06:26:24.438Z,4.60
2018-12-05T06:28:53.511Z,4.40
2018-12-05T06:31:22.604Z,4.62
2018-12-05T06:33:51.745Z,6.92
2018-12-05T06:36:20.905Z,5.10
2018-12-05T06:38:50.033Z,4.50
2018-12-05T06:41:19.145Z,4.30
2018-12-05T06:43:48.304Z,6.30
2018-12-05T06:46:17.445Z,3.80
2018-12-05T06:48:46.695Z,5.33
2018-12-05T06:51:15.865Z,5.65
2018-12-05T06:53:44.947Z,5.97
2018-12-05T06:56:14.085Z,5.28
2018-12-05T06:58:43.226Z,3.60
2018-12-05T07:01:12.419Z,7.72
2018-12-05T07:03:41.554Z,6.03
2018-12-05T07:06:10.725Z,6.78
2018-12-05T07:08:39.995Z,5.35
2018-12-05T07:11:09.069Z,5.33
2018-12-05T07:13:38.219Z,4.05
2018-12-05T07:16:07.353Z,5.75
2018-12-05T07:18:36.499Z,4.80
2018-12-05T07:21:05.787Z,7.75
2018-12-05T07:23:34.933Z,5.87
2018-12-05T07:26:04.100Z,6.75
2018-12-05T07:28:33.242Z,6.75
2018-12-05T07:31:02.364Z,7.97
2018-12-05T07:33:31.448Z,5.35
2018-12-05T07:36:00.607Z,6.65
2018-12-05T07:38:29.731Z,4.92
2018-12-05T07:40:58.997Z,4.97
2018-12-05T07:43:28.137Z,5.03
2018-12-05T07:45:57.346Z,7.58
2018-12-05T07:48:26.494Z,6.70
2018-12-05T07:50:55.660Z,7.60
2018-12-05T07:53:24.840Z,4.50
2018-12-05T07:55:53.975Z,7.90
2018-12-05T07:58:23.157Z,6.40
2018-12-05T08:00:52.320Z,6.40
2018-12-05T08:03:22.417Z,5.33
2018-12-05T08:05:51.588Z,6.72
2018-12-05T08:08:20.750Z,6.08
2018-12-05T08:10:50.078Z,6.20
2018-12-05T08:13:19.254Z,5.35
2018-12-05T08:15:48.384Z,6.03
2018-12-05T08:18:17.516Z,7.55
2018-12-05T08:20:46.710Z,6.00
2018-12-05T08:23:16.000Z,5.53
2018-12-05T08:25:45.116Z,4.05
2018-12-05T08:28:14.270Z,5.50
2018-12-05T08:30:43.397Z,6.15
2018-12-05T08:33:12.528Z,6.60
2018-12-05T08:35:42.863Z,5.17
2018-12-05T08:38:12.012Z,6.95
2018-12-05T08:40:41.223Z,5.00
2018-12-05T08:43:10.339Z,5.50
2018-12-05T08:45:39.535Z,6.22
2018-12-05T08:48:08.675Z,5.80
2018-12-05T08:50:37.931Z,5.47
2018-12-05T08:53:07.103Z,6.33
2018-12-05T08:55:36.457Z,9.05
2018-12-05T08:59:08.837Z,4.90
2018-12-05T09:01:38.029Z,3.98
2018-12-05T09:04:07.135Z,4.72
2018-12-05T09:06:36.237Z,4.53
2018-12-05T09:09:06.948Z,5.50
2018-12-05T09:11:36.227Z,5.03
2018-12-05T09:14:05.492Z,4.83
2018-12-05T09:16:34.672Z,4.60
2018-12-05T09:19:04.006Z,4.60
2018-12-05T09:21:33.334Z,5.80
2018-12-05T09:24:02.755Z,7.33
2018-12-05T09:26:31.911Z,6.40
2018-12-05T09:29:01.100Z,4.83
2018-12-05T09:31:30.234Z,5.17
2018-12-05T09:33:59.525Z,6.22
2018-12-05T09:36:28.760Z,4.83
2018-12-05T09:38:57.903Z,5.80
2018-12-05T09:41:27.071Z,5.45
2018-12-05T09:43:56.329Z,4.37
2018-12-05T09:46:25.456Z,5.53
2018-12-05T09:48:54.619Z,6.08
2018-12-05T09:51:23.809Z,5.57
2018-12-05T09:53:52.997Z,7.60
2018-12-05T09:56:22.106Z,8.37
2018-12-05T09:58:52.962Z,5.92
2018-12-05T10:01:22.367Z,9.03
2018-12-05T10:03:51.681Z,6.20
2018-12-05T10:06:20.856Z,7.30
2018-12-05T10:08:50.019Z,5.37
2018-12-05T10:11:19.166Z,6.30
2018-12-05T10:13:48.304Z,5.30
2018-12-05T10:16:17.436Z,5.10
2018-12-05T10:18:46.563Z,5.60
2018-12-05T10:21:15.738Z,6.97
2018-12-05T10:23:44.849Z,6.37
2018-12-05T10:26:14.167Z,4.80
2018-12-05T10:28:43.292Z,6.87
2018-12-05T10:31:12.451Z,8.90
2018-12-05T10:33:41.581Z,8.23
2018-12-05T10:36:10.741Z,4.47
2018-12-05T10:38:39.874Z,6.33
2018-12-05T10:41:09.139Z,7.03
2018-12-05T10:43:38.299Z,5.70
2018-12-05T10:46:07.540Z,7.13
2018-12-05T10:48:36.691Z,6.43
2018-12-05T10:51:05.828Z,6.47
2018-12-05T10:53:34.968Z,4.80
2018-12-05T10:56:04.133Z,5.20
2018-12-05T10:58:33.378Z,5.60
2018-12-05T11:01:07.988Z,6.37
2018-12-05T11:03:37.141Z,7.08
2018-12-05T11:06:11.712Z,6.65
2018-12-05T11:08:46.172Z,5.12
2018-12-05T11:11:20.948Z,6.72
2018-12-05T11:13:55.526Z,7.10
2018-12-05T11:16:30.050Z,5.90
2018-12-05T11:19:04.679Z,5.35
2018-12-05T11:21:39.179Z,4.35
2018-12-05T11:24:14.536Z,5.45
2018-12-05T11:26:43.840Z,4.37
2018-12-05T11:29:13.016Z,5.50
2018-12-05T11:31:42.147Z,4.15
2018-12-05T11:34:11.275Z,5.05
2018-12-05T11:36:40.439Z,6.37
2018-12-05T11:39:09.704Z,6.08
2018-12-05T11:41:38.794Z,5.05
2018-12-05T11:44:07.936Z,4.37
2018-12-05T11:46:37.068Z,5.20
2018-12-05T11:49:06.309Z,6.53
2018-12-05T11:51:35.388Z,6.22
2018-12-05T11:54:04.673Z,5.28
2018-12-05T11:56:33.812Z,5.90
2018-12-05T11:59:02.968Z,5.30
2018-12-05T12:01:32.116Z,5.15
2018-12-05T12:04:01.208Z,4.33
2018-12-05T12:06:30.372Z,4.65
2018-12-05T12:08:59.768Z,5.35
2018-12-05T12:11:29.157Z,7.30
2018-12-05T12:13:58.305Z,7.65
2018-12-05T12:16:27.668Z,3.87
2018-12-05T12:18:56.785Z,7.47
2018-12-05T12:21:25.856Z,4.03
2018-12-05T12:23:55.002Z,4.15
2018-12-05T12:26:24.177Z,4.80
2018-12-05T12:28:54.486Z,7.00
2018-12-05T12:31:23.572Z,4.92
2018-12-05T12:33:52.713Z,6.08
2018-12-05T12:36:21.949Z,6.33
2018-12-05T12:38:51.300Z,7.33
2018-12-05T12:41:20.455Z,4.40
2018-12-05T12:43:49.610Z,5.22
2018-12-05T12:46:18.993Z,7.20
2018-12-05T12:48:48.152Z,7.17
2018-12-05T12:51:17.276Z,4.55
2018-12-05T12:53:46.444Z,4.65
2018-12-05T12:56:15.627Z,5.40
2018-12-05T12:58:44.712Z,6.87
2018-12-05T13:01:13.846Z,8.15
2018-12-05T13:03:42.924Z,4.67
2018-12-05T13:06:12.145Z,5.33
2018-12-05T13:08:41.257Z,5.75
2018-12-05T13:11:10.641Z,5.35
2018-12-05T13:13:39.799Z,5.22
2018-12-05T13:16:08.944Z,4.30
2018-12-05T13:18:38.117Z,9.50
2018-12-05T13:21:07.248Z,6.00
2018-12-05T13:23:36.433Z,7.70
2018-12-05T13:26:05.641Z,6.35
2018-12-05T13:28:34.819Z,8.15
2018-12-05T13:31:04.129Z,5.53
2018-12-05T13:33:33.317Z,5.30
2018-12-05T13:36:02.477Z,4.55
2018-12-05T13:38:31.641Z,6.72
2018-12-05T13:41:00.787Z,5.20
2018-12-05T13:43:29.913Z,5.80
2018-12-05T13:45:59.041Z,7.12
2018-12-05T13:48:28.217Z,5.12
2018-12-05T13:50:57.476Z,9.68
2018-12-05T13:53:26.765Z,6.90
2018-12-05T13:55:55.999Z,7.03
2018-12-05T13:58:25.356Z,5.83
2018-12-05T14:00:54.531Z,7.42
2018-12-05T14:03:23.626Z,9.13
2018-12-05T14:05:52.780Z,7.90
2018-12-05T14:08:21.946Z,7.95
2018-12-05T14:10:51.110Z,11.60
2018-12-05T14:13:20.333Z,9.20
2018-12-05T14:15:49.480Z,10.40
2018-12-05T14:18:18.640Z,9.00
2018-12-05T14:20:47.770Z,10.58
2018-12-05T14:23:16.922Z,9.30
2018-12-05T14:25:46.095Z,9.10
2018-12-05T14:28:15.239Z,7.53
2018-12-05T14:30:44.412Z,9.58
2018-12-05T14:33:13.706Z,9.88
2018-12-05T14:35:43.819Z,8.00
2018-12-05T14:38:13.031Z,10.20
2018-12-05T14:40:42.232Z,10.82
2018-12-05T14:43:11.582Z,12.37
2018-12-05T14:45:40.726Z,8.08
2018-12-05T14:48:09.918Z,10.13
2018-12-05T14:50:39.198Z,12.78
2018-12-05T14:53:08.376Z,9.95
2018-12-05T14:55:37.552Z,10.13
2018-12-05T14:58:06.788Z,9.33
2018-12-05T15:00:36.095Z,16.70
2018-12-05T15:03:05.339Z,13.32
2018-12-05T15:05:34.637Z,11.90
2018-12-05T15:08:03.798Z,12.00
2018-12-05T15:10:32.986Z,12.18
2018-12-05T15:13:02.208Z,11.12
2018-12-05T15:15:31.400Z,13.90
2018-12-05T15:18:00.598Z,12.23
2018-12-05T15:20:29.784Z,12.80
2018-12-05T15:22:59.160Z,15.40
2018-12-05T15:25:28.358Z,12.95
2018-12-05T15:27:57.501Z,12.13
2018-12-05T15:30:26.658Z,12.68
2018-12-05T15:32:55.784Z,11.28
2018-12-05T15:35:26.018Z,15.30
2018-12-05T15:37:55.370Z,10.48
2018-12-05T15:40:24.512Z,12.18
2018-12-05T15:42:53.697Z,13.60
2018-12-05T15:45:22.890Z,12.10
2018-12-05T15:47:52.034Z,14.93
2018-12-05T15:50:21.195Z,15.28
2018-12-05T15:52:50.340Z,17.35
2018-12-05T15:55:19.496Z,10.60
2018-12-05T15:57:48.681Z,13.00
2018-12-05T16:00:17.932Z,17.15
2018-12-05T16:02:47.073Z,12.93
2018-12-05T16:05:16.785Z,16.00
2018-12-05T16:07:46.781Z,13.40
2018-12-05T16:10:15.940Z,14.03
2018-12-05T16:12:45.139Z,10.75
2018-12-05T16:15:14.424Z,15.00
2018-12-05T16:17:43.632Z,11.15
2018-12-05T16:20:12.748Z,16.00
2018-12-05T16:22:41.954Z,15.45
2018-12-05T16:25:11.149Z,11.83
2018-12-05T16:27:41.112Z,12.47
2018-12-05T16:30:11.122Z,13.30
2018-12-05T16:32:40.356Z,12.88
2018-12-05T16:35:09.516Z,13.58
2018-12-05T16:37:39.920Z,12.95
2018-12-05T16:40:09.079Z,13.50
2018-12-05T16:42:38.323Z,15.08
2018-12-05T16:45:08.255Z,17.45
2018-12-05T16:47:37.448Z,16.87
2018-12-05T16:50:07.157Z,17.60
2018-12-05T16:52:36.390Z,16.40
2018-12-05T16:55:05.747Z,13.15
2018-12-05T16:57:34.899Z,14.60
2018-12-05T17:00:04.768Z,14.28
2018-12-05T17:02:33.908Z,14.45
2018-12-05T17:05:03.045Z,13.58
2018-12-05T17:07:32.367Z,18.12
2018-12-05T17:10:01.563Z,12.15
2018-12-05T17:12:30.805Z,14.58
2018-12-05T17:14:59.926Z,15.90
2018-12-05T17:17:29.226Z,18.40
2018-12-05T17:19:58.380Z,18.07
2018-12-05T17:22:27.536Z,15.53
2018-12-05T17:24:56.673Z,17.32
2018-12-05T17:27:25.902Z,16.05
2018-12-05T17:29:55.089Z,20.75
2018-12-05T17:32:24.294Z,19.75
2018-12-05T17:34:53.510Z,18.15
2018-12-05T17:37:22.657Z,19.10
2018-12-05T17:39:51.954Z,19.82
2018-12-05T17:42:22.033Z,23.10
2018-12-05T17:44:51.536Z,20.23
2018-12-05T17:47:20.751Z,19.82
2018-12-05T17:49:49.909Z,16.32
2018-12-05T17:52:19.128Z,14.40
2018-12-05T17:54:49.117Z,20.52
2018-12-05T17:57:18.333Z,17.00
2018-12-05T17:59:47.420Z,16.32
2018-12-05T18:02:17.280Z,24.55
2018-12-05T18:04:46.442Z,19.73
2018-12-05T18:07:15.757Z,22.25
2018-12-05T18:09:44.929Z,22.22
2018-12-05T18:12:14.107Z,20.90
2018-12-05T18:14:43.269Z,19.77
2018-12-05T18:17:12.490Z,21.15
2018-12-05T18:19:41.611Z,19.15
2018-12-05T18:22:10.752Z,22.40
2018-12-05T18:24:39.867Z,16.32
2018-12-05T18:27:09.161Z,22.90
2018-12-05T18:29:38.381Z,21.95
2018-12-05T18:32:07.585Z,27.32
2018-12-05T18:34:36.750Z,24.45
2018-12-05T18:37:05.885Z,21.35
2018-12-05T18:39:35.061Z,24.67
2018-12-05T18:42:04.413Z,21.80
2018-12-05T18:44:33.589Z,21.50
2018-12-05T18:47:02.786Z,26.35
2018-12-05T18:49:32.025Z,22.98
2018-12-05T18:52:01.175Z,22.42
2018-12-05T18:54:30.929Z,30.92
2018-12-05T18:57:00.075Z,23.80
2018-12-05T18:59:29.237Z,18.67
2018-12-05T19:01:58.432Z,22.22
2018-12-05T19:04:27.604Z,22.25
2018-12-05T19:06:56.760Z,18.30
2018-12-05T19:09:26.932Z,22.20
2018-12-05T19:11:56.413Z,27.22
2018-12-05T19:14:30.929Z,29.60
2018-12-05T19:17:00.089Z,21.90
2018-12-05T19:19:29.236Z,22.27
2018-12-05T19:21:58.365Z,22.52
2018-12-05T19:24:27.509Z,24.77
2018-12-05T19:26:56.661Z,22.13
2018-12-05T19:29:25.825Z,22.90
2018-12-05T19:31:55.014Z,27.10
2018-12-05T19:34:24.157Z,22.42
2018-12-05T19:36:53.333Z,27.02
2018-12-05T19:39:22.501Z,18.37
2018-12-05T19:41:51.698Z,21.35
2018-12-05T19:44:21.049Z,20.97
2018-12-05T19:46:50.209Z,25.57
2018-12-05T19:49:19.445Z,23.95
2018-12-05T19:51:48.763Z,27.15
2018-12-05T19:54:17.942Z,21.97
2018-12-05T19:56:47.103Z,19.32
2018-12-05T19:59:16.295Z,23.27
2018-12-05T20:01:45.825Z,23.25
2018-12-05T20:04:15.033Z,23.10
2018-12-05T20:06:44.227Z,21.30
2018-12-05T20:09:13.465Z,21.60
2018-12-05T20:11:42.741Z,19.12
2018-12-05T20:14:16.247Z,18.12
2018-12-05T20:16:45.475Z,19.70
2018-12-05T20:19:14.723Z,22.05
2018-12-05T20:21:43.931Z,19.55
2018-12-05T20:24:13.115Z,21.65
2018-12-05T20:26:42.485Z,20.57
2018-12-05T20:29:11.679Z,22.50
2018-12-05T20:31:40.869Z,20.95
2018-12-05T20:34:10.037Z,21.37
2018-12-05T20:36:39.309Z,21.15
2018-12-05T20:39:10.718Z,29.40
2018-12-05T20:41:39.913Z,25.17
2018-12-05T20:44:10.422Z,20.00
2018-12-05T20:46:39.789Z,27.10
2018-12-05T20:49:08.975Z,28.35
2018-12-05T20:51:38.177Z,23.40
2018-12-05T20:54:07.353Z,21.77
2018-12-05T20:56:36.567Z,23.98
2018-12-05T20:59:05.772Z,19.48
2018-12-05T21:01:35.281Z,23.83
2018-12-05T21:04:04.622Z,21.12
2018-12-05T21:06:33.822Z,21.45
2018-12-05T21:09:03.680Z,17.05
2018-12-05T21:11:33.958Z,16.73
2018-12-05T21:14:03.298Z,24.10
2018-12-05T21:16:32.764Z,24.85
2018-12-05T21:19:02.066Z,24.25
2018-12-05T21:21:31.290Z,20.35
2018-12-05T21:24:00.490Z,17.45
2018-12-05T21:26:29.699Z,19.65
2018-12-05T21:28:58.862Z,24.32
2018-12-05T21:31:28.313Z,18.20
2018-12-05T21:33:57.513Z,21.70
2018-12-05T21:36:26.810Z,18.70
2018-12-05T21:38:56.014Z,18.02
2018-12-05T21:41:25.236Z,16.05
2018-12-05T21:43:54.504Z,19.42
2018-12-05T21:46:23.708Z,22.05
2018-12-05T21:48:54.030Z,19.23
2018-12-05T21:51:24.202Z,16.80
2018-12-05T21:53:53.394Z,18.87
2018-12-05T21:56:22.530Z,27.17
2018-12-05T21:58:51.736Z,21.10
2018-12-05T22:01:20.997Z,17.27
2018-12-05T22:03:50.176Z,20.05
2018-12-05T22:06:19.431Z,16.37
2018-12-05T22:08:48.636Z,26.50
2018-12-05T22:11:17.902Z,17.65
2018-12-05T22:13:47.086Z,19.48
2018-12-05T22:16:16.384Z,18.32
2018-12-05T22:18:45.606Z,16.25
2018-12-05T22:21:14.761Z,19.67
2018-12-05T22:23:43.964Z,18.70
2018-12-05T22:26:13.122Z,18.48
2018-12-05T22:28:42.320Z,19.07
2018-12-05T22:31:12.026Z,21.27
2018-12-05T22:33:41.208Z,18.37
2018-12-05T22:36:10.386Z,27.93
2018-12-05T22:38:39.598Z,20.82
2018-12-05T22:41:08.925Z,20.97
2018-12-05T22:43:38.144Z,25.52
2018-12-05T22:46:07.338Z,22.25
2018-12-05T22:48:36.564Z,24.95
2018-12-05T22:51:05.896Z,20.02
2018-12-05T22:53:35.165Z,23.73
2018-12-05T22:56:04.476Z,21.52
2018-12-05T22:58:33.698Z,24.00
2018-12-05T23:01:03.750Z,22.07
2018-12-05T23:03:34.871Z,19.85
2018-12-05T23:06:04.388Z,22.25
2018-12-05T23:08:33.574Z,24.37
2018-12-05T23:11:02.782Z,19.07
2018-12-05T23:13:32.079Z,21.17
2018-12-05T23:16:01.241Z,19.20
2018-12-05T23:18:30.632Z,23.30
2018-12-05T23:20:59.802Z,19.87
2018-12-05T23:23:28.985Z,22.17
2018-12-05T23:25:59.155Z,21.77
2018-12-05T23:28:28.351Z,29.52
2018-12-05T23:30:57.646Z,18.80
2018-12-05T23:33:26.899Z,23.83
2018-12-05T23:35:56.026Z,21.90
2018-12-05T23:38:25.181Z,21.68
2018-12-05T23:40:55.293Z,25.65
2018-12-05T23:43:24.714Z,19.75
2018-12-05T23:45:53.898Z,26.07
2018-12-05T23:48:23.211Z,24.67
2018-12-05T23:50:52.396Z,29.18
2018-12-05T23:53:21.812Z,23.10
2018-12-05T23:55:51.034Z,21.48
2018-12-05T23:58:20.194Z,24.35
